createdAt,value
2023-05-09T00:00:53.354Z,101217.53
2023-05-09T00:03:20.184Z,101218.84
2023-05-09T00:05:47.391Z,101223.38
2023-05-09T00:08:14.274Z,101209.19
2023-05-09T00:10:41.859Z,101192.81
2023-05-09T00:13:08.619Z,101206.84
2023-05-09T00:15:35.872Z,101208.00
2023-05-09T00:18:10.089Z,101210.00
2023-05-09T00:20:37.024Z,101176.94
2023-05-09T00:23:04.903Z,101206.84
2023-05-09T00:25:32.087Z,101207.69
2023-05-09T00:27:59.182Z,101216.19
2023-05-09T00:30:26.221Z,101214.22
2023-05-09T00:32:53.005Z,101177.25
2023-05-09T00:35:20.018Z,101206.53
2023-05-09T00:37:46.771Z,101200.03
2023-05-09T00:40:13.829Z,101182.13
2023-05-09T00:42:40.997Z,101183.31
2023-05-09T00:45:08.569Z,101188.13
2023-05-09T00:47:35.730Z,101201.69
2023-05-09T00:50:02.675Z,101174.09
2023-05-09T00:52:29.461Z,101203.34
2023-05-09T00:54:56.205Z,101203.34
2023-05-09T00:57:25.868Z,101193.19
2023-05-09T00:59:53.155Z,101196.03
2023-05-09T01:02:19.922Z,101199.19
2023-05-09T01:04:46.888Z,101207.38
2023-05-09T01:07:27.673Z,101199.19
2023-05-09T01:10:01.964Z,101199.19
2023-05-09T01:12:36.113Z,101198.34
2023-05-09T01:15:04.743Z,101191.81
2023-05-09T01:17:31.482Z,101190.97
2023-05-09T01:20:15.049Z,101189.31
2023-05-09T01:22:50.129Z,101154.41
2023-05-09T01:25:38.468Z,101185.97
2023-05-09T01:28:26.290Z,101144.22
2023-05-09T01:30:53.090Z,101180.28
2023-05-09T01:33:19.896Z,101174.78
2023-05-09T01:35:50.042Z,101180.28
2023-05-09T01:38:19.346Z,101174.63
2023-05-09T01:40:48.413Z,101187.63
2023-05-09T01:43:15.848Z,101172.78
2023-05-09T01:45:42.721Z,101179.97
2023-05-09T01:48:09.655Z,101166.59
2023-05-09T01:50:36.463Z,101189.31
2023-05-09T01:53:03.294Z,101193.31
2023-05-09T01:55:31.980Z,101196.47
2023-05-09T01:57:58.964Z,101189.97
2023-05-09T02:00:26.035Z,101181.47
2023-05-09T02:02:53.273Z,101179.47
2023-05-09T02:05:21.471Z,101153.91
2023-05-09T02:07:48.246Z,101171.25
2023-05-09T02:10:15.063Z,101162.75
2023-05-09T02:12:42.010Z,101154.06
2023-05-09T02:15:09.521Z,101152.41
2023-05-09T02:17:36.384Z,101132.88
2023-05-09T02:20:05.369Z,101160.44
2023-05-09T02:22:32.239Z,101046.84
2023-05-09T02:24:59.076Z,101140.53
2023-05-09T02:27:26.350Z,101165.56
2023-05-09T02:29:56.124Z,101171.59
2023-05-09T02:32:24.890Z,101159.91
2023-05-09T02:34:52.890Z,101119.00
2023-05-09T02:37:19.764Z,101179.59
2023-05-09T02:39:46.620Z,101165.22
2023-05-09T02:42:15.207Z,101168.75
2023-05-09T02:44:41.993Z,101176.44
2023-05-09T02:47:08.727Z,101175.25
2023-05-09T02:49:35.444Z,101176.91
2023-05-09T02:52:02.209Z,101168.59
2023-05-09T02:54:29.035Z,101175.78
2023-05-09T02:56:55.857Z,101170.94
2023-05-09T02:59:22.722Z,101181.94
2023-05-09T03:01:49.610Z,101172.28
2023-05-09T03:04:16.830Z,101171.25
2023-05-09T03:06:44.075Z,101169.94
2023-05-09T03:09:10.840Z,101171.59
2023-05-09T03:11:37.657Z,101177.25
2023-05-09T03:14:04.888Z,101154.75
2023-05-09T03:16:31.853Z,101173.13
2023-05-09T03:18:58.810Z,101167.75
2023-05-09T03:21:25.996Z,101177.94
2023-05-09T03:23:52.866Z,101162.59
2023-05-09T03:26:19.777Z,101165.91
2023-05-09T03:28:46.941Z,101151.72
2023-05-09T03:31:13.679Z,101130.06
2023-05-09T03:33:40.820Z,101148.25
2023-05-09T03:36:07.935Z,101152.25
2023-05-09T03:38:34.688Z,101147.75
2023-05-09T03:41:01.548Z,101144.91
2023-05-09T03:43:28.479Z,101144.09
2023-05-09T03:45:55.432Z,101139.25
2023-05-09T03:48:22.376Z,101155.09
2023-05-09T03:50:49.182Z,101119.88
2023-05-09T03:53:16.046Z,101062.66
2023-05-09T03:55:42.977Z,101102.34
2023-05-09T03:58:09.745Z,101096.38
2023-05-09T04:00:36.537Z,101060.47
2023-05-09T04:03:04.426Z,101113.03
2023-05-09T04:05:33.653Z,101108.34
2023-05-09T04:08:00.408Z,101095.66
2023-05-09T04:10:27.342Z,101120.19
2023-05-09T04:12:54.119Z,101105.19
2023-05-09T04:15:20.956Z,101098.13
2023-05-09T04:17:47.891Z,101139.53
2023-05-09T04:20:15.291Z,101101.78
2023-05-09T04:22:42.030Z,101141.19
2023-05-09T04:25:12.745Z,101137.53
2023-05-09T04:27:39.732Z,101152.03
2023-05-09T04:30:07.027Z,101151.03
2023-05-09T04:32:33.878Z,101146.19
2023-05-09T04:35:01.395Z,101157.00
2023-05-09T04:37:28.176Z,101149.16
2023-05-09T04:39:55.053Z,101135.16
2023-05-09T04:42:21.998Z,101142.47
2023-05-09T04:44:49.524Z,101114.22
2023-05-09T04:47:16.371Z,101141.13
2023-05-09T04:49:43.101Z,101133.97
2023-05-09T04:52:09.916Z,101062.78
2023-05-09T04:54:36.891Z,101143.13
2023-05-09T04:57:16.590Z,101110.53
2023-05-09T04:59:44.519Z,101137.09
2023-05-09T05:02:11.303Z,101131.09
2023-05-09T05:04:38.266Z,101145.38
2023-05-09T05:07:05.505Z,101137.66
2023-05-09T05:09:32.232Z,101144.69
2023-05-09T05:12:02.344Z,101147.81
2023-05-09T05:14:29.988Z,101136.66
2023-05-09T05:16:56.706Z,101138.31
2023-05-09T05:19:23.509Z,101136.28
2023-05-09T05:21:50.481Z,101137.50
2023-05-09T05:24:17.256Z,101111.09
2023-05-09T05:26:44.056Z,101142.31
2023-05-09T05:29:10.940Z,101146.31
2023-05-09T05:31:37.718Z,101152.00
2023-05-09T05:34:04.570Z,101153.78
2023-05-09T05:36:32.354Z,101155.97
2023-05-09T05:38:59.087Z,101151.28
2023-05-09T05:41:27.207Z,101156.63
2023-05-09T05:43:54.601Z,101155.78
2023-05-09T05:46:21.540Z,101131.91
2023-05-09T05:48:48.621Z,101154.94
2023-05-09T05:51:15.596Z,101150.13
2023-05-09T05:53:42.843Z,101154.66
2023-05-09T05:56:09.629Z,101155.78
2023-05-09T05:58:36.560Z,101154.31
2023-05-09T06:01:03.330Z,101146.97
2023-05-09T06:03:30.166Z,101087.66
2023-05-09T06:05:57.185Z,101136.28
2023-05-09T06:08:24.030Z,101126.13
2023-05-09T06:10:50.809Z,101128.97
2023-05-09T06:13:17.737Z,101127.81
2023-05-09T06:15:44.500Z,101132.28
2023-05-09T06:18:11.549Z,101135.97
2023-05-09T06:20:38.551Z,101140.97
2023-05-09T06:23:05.397Z,101138.97
2023-05-09T06:25:32.127Z,101116.09
2023-05-09T06:27:59.004Z,101141.81
2023-05-09T06:30:26.961Z,101153.66
2023-05-09T06:32:55.155Z,101142.31
2023-05-09T06:35:22.364Z,101128.81
2023-05-09T06:37:49.460Z,101133.31
2023-05-09T06:40:17.101Z,101114.41
2023-05-09T06:42:44.730Z,101132.94
2023-05-09T06:45:11.910Z,101142.66
2023-05-09T06:47:38.837Z,101142.31
2023-05-09T06:50:06.398Z,101143.16
2023-05-09T06:52:33.138Z,101141.63
2023-05-09T06:54:59.985Z,101148.50
2023-05-09T06:57:26.997Z,101149.00
2023-05-09T06:59:53.716Z,101152.19
2023-05-09T07:02:20.878Z,101152.19
2023-05-09T07:04:47.786Z,101153.00
2023-05-09T07:07:14.568Z,101153.84
2023-05-09T07:09:41.510Z,101154.66
2023-05-09T07:12:08.452Z,101138.59
2023-05-09T07:14:35.278Z,101128.28
2023-05-09T07:17:18.001Z,101156.03
2023-05-09T07:19:48.627Z,101176.03
2023-05-09T07:22:15.668Z,101179.38
2023-05-09T07:24:44.392Z,101182.75
2023-05-09T07:27:11.226Z,101186.59
2023-05-09T07:29:37.996Z,101168.69
2023-05-09T07:32:05.184Z,101174.28
2023-05-09T07:34:32.385Z,101185.81
2023-05-09T07:36:59.181Z,101155.38
2023-05-09T07:39:25.976Z,101189.47
2023-05-09T07:41:52.961Z,101196.31
2023-05-09T07:44:20.061Z,101200.09
2023-05-09T07:46:46.984Z,101202.28
2023-05-09T07:49:15.401Z,101205.78
2023-05-09T07:51:42.168Z,101206.41
2023-05-09T07:54:10.285Z,101218.41
2023-05-09T07:56:37.242Z,101204.66
2023-05-09T07:59:04.194Z,101217.09
2023-05-09T08:01:31.089Z,101223.03
2023-05-09T08:03:58.117Z,101223.03
2023-05-09T08:06:26.404Z,101231.03
2023-05-09T08:08:53.257Z,101209.47
2023-05-09T08:11:20.147Z,101230.38
2023-05-09T08:13:48.301Z,101209.47
2023-05-09T08:16:17.558Z,101234.44
2023-05-09T08:18:44.674Z,101222.97
2023-05-09T08:21:11.541Z,101212.44
2023-05-09T08:23:38.456Z,101239.00
2023-05-09T08:26:05.364Z,101226.13
2023-05-09T08:28:32.087Z,101230.53
2023-05-09T08:30:58.829Z,101231.88
2023-05-09T08:33:26.104Z,101235.25
2023-05-09T08:35:53.321Z,101241.09
2023-05-09T08:38:20.552Z,101235.28
2023-05-09T08:40:47.366Z,101247.63
2023-05-09T08:43:14.549Z,101231.81
2023-05-09T08:45:47.122Z,101184.38
2023-05-09T08:48:17.759Z,101236.03
2023-05-09T08:50:44.707Z,101243.59
2023-05-09T08:53:14.636Z,101244.44
2023-05-09T08:55:41.544Z,101243.75
2023-05-09T08:58:09.262Z,101248.28
2023-05-09T09:00:37.384Z,101242.78
2023-05-09T09:03:04.529Z,101242.78
2023-05-09T09:05:41.211Z,101233.78
2023-05-09T09:08:08.849Z,101224.75
2023-05-09T09:10:35.727Z,101223.25
2023-05-09T09:13:05.187Z,101228.72
2023-05-09T09:15:35.424Z,101241.69
2023-05-09T09:18:10.249Z,101268.94
2023-05-09T09:20:48.243Z,101236.72
2023-05-09T09:23:18.813Z,101274.56
2023-05-09T09:25:48.790Z,101260.66
2023-05-09T09:28:15.815Z,101265.66
2023-05-09T09:30:49.187Z,101260.75
2023-05-09T09:33:22.238Z,101239.84
2023-05-09T09:35:50.332Z,101231.28
2023-05-09T09:38:18.447Z,101268.78
2023-05-09T09:40:49.880Z,101255.63
2023-05-09T09:43:16.831Z,101266.88
2023-05-09T09:45:44.221Z,101236.88
2023-05-09T09:48:11.198Z,101265.19
2023-05-09T09:50:38.075Z,101236.47
2023-05-09T09:53:04.806Z,101246.22
2023-05-09T09:55:32.022Z,101244.59
2023-05-09T09:57:58.817Z,101259.56
2023-05-09T10:00:30.467Z,101239.38
2023-05-09T10:02:58.631Z,101243.84
2023-05-09T10:05:29.444Z,101250.44
2023-05-09T10:07:56.859Z,101255.25
2023-05-09T10:10:24.328Z,101254.81
2023-05-09T10:12:51.242Z,101259.72
2023-05-09T10:15:21.932Z,101255.34
2023-05-09T10:17:51.371Z,101236.25
2023-05-09T10:20:18.281Z,101240.66
2023-05-09T10:22:45.207Z,101240.13
2023-05-09T10:25:19.552Z,101216.63
2023-05-09T10:27:47.161Z,101229.91
2023-05-09T10:30:23.526Z,101250.31
2023-05-09T10:33:09.256Z,101260.69
2023-05-09T10:35:46.809Z,101261.03
2023-05-09T10:38:14.059Z,101261.16
2023-05-09T10:40:41.010Z,101263.78
2023-05-09T10:43:08.450Z,101259.47
2023-05-09T10:45:35.394Z,101259.91
2023-05-09T10:48:04.121Z,101253.00
2023-05-09T10:50:31.069Z,101253.91
2023-05-09T10:53:19.108Z,101253.34
2023-05-09T10:55:56.242Z,101261.38
2023-05-09T10:58:29.399Z,101263.59
2023-05-09T11:01:03.847Z,101246.56
2023-05-09T11:03:57.682Z,101257.84
2023-05-09T11:06:41.750Z,101257.88
2023-05-09T11:09:28.560Z,101260.66
2023-05-09T11:11:58.436Z,101271.31
2023-05-09T11:14:45.131Z,101253.91
2023-05-09T11:17:12.823Z,101256.44
2023-05-09T11:19:58.522Z,101261.28
2023-05-09T11:22:41.580Z,101253.84
2023-05-09T11:25:11.907Z,101259.59
2023-05-09T11:27:45.428Z,101255.97
2023-05-09T11:30:16.861Z,101255.66
2023-05-09T11:33:02.477Z,101257.03
2023-05-09T11:35:29.503Z,101241.59
2023-05-09T11:38:00.422Z,101247.53
2023-05-09T11:40:28.094Z,101261.78
2023-05-09T11:42:58.431Z,101254.94
2023-05-09T11:45:31.074Z,101208.09
2023-05-09T11:47:58.038Z,101257.22
2023-05-09T11:50:24.920Z,101234.22
2023-05-09T11:52:51.720Z,101246.75
2023-05-09T11:55:23.009Z,101218.28
2023-05-09T11:57:53.567Z,101229.91
2023-05-09T12:00:21.995Z,101245.78
2023-05-09T12:02:49.532Z,101243.34
2023-05-09T12:05:18.710Z,101242.78
2023-05-09T12:07:45.849Z,101242.22
2023-05-09T12:10:14.721Z,101236.84
2023-05-09T12:12:51.809Z,101233.50
2023-05-09T12:15:19.597Z,101232.84
2023-05-09T12:17:50.362Z,101220.34
2023-05-09T12:20:17.252Z,101210.38
2023-05-09T12:22:44.345Z,101233.72
2023-05-09T12:25:12.284Z,101239.19
2023-05-09T12:27:40.954Z,101238.41
2023-05-09T12:30:14.080Z,101228.09
2023-05-09T12:32:42.144Z,101221.75
2023-05-09T12:35:10.615Z,101232.28
2023-05-09T12:37:37.882Z,101230.00
2023-05-09T12:40:13.258Z,101205.44
2023-05-09T12:42:40.827Z,101228.34
2023-05-09T12:45:11.550Z,101217.44
2023-05-09T12:47:42.238Z,101218.06
2023-05-09T12:50:11.651Z,101223.28
2023-05-09T12:52:46.947Z,101220.84
2023-05-09T12:55:21.835Z,101229.50
2023-05-09T12:58:02.054Z,101230.88
2023-05-09T13:00:29.152Z,101236.81
2023-05-09T13:02:56.084Z,101220.25
2023-05-09T13:05:23.610Z,101244.88
2023-05-09T13:07:52.690Z,101240.16
2023-05-09T13:10:23.822Z,101232.03
2023-05-09T13:12:51.476Z,101236.63
2023-05-09T13:15:22.841Z,101240.34
2023-05-09T13:17:51.058Z,101211.91
2023-05-09T13:20:18.514Z,101236.66
2023-05-09T13:22:45.997Z,101237.34
2023-05-09T13:25:13.043Z,101235.53
2023-05-09T13:27:39.882Z,101222.97
2023-05-09T13:30:10.059Z,101147.34
2023-05-09T13:32:37.234Z,101229.91
2023-05-09T13:35:06.890Z,101216.97
2023-05-09T13:37:36.772Z,101224.88
2023-05-09T13:40:04.403Z,101220.75
2023-05-09T13:42:32.038Z,101222.34
2023-05-09T13:44:59.117Z,101206.78
2023-05-09T13:47:26.117Z,101224.16
2023-05-09T13:49:53.035Z,101221.06
2023-05-09T13:52:20.185Z,101217.59
2023-05-09T13:54:47.345Z,101216.19
2023-05-09T13:57:14.110Z,101231.88
2023-05-09T13:59:43.990Z,101215.47
2023-05-09T14:02:13.493Z,101198.69
2023-05-09T14:04:41.186Z,101224.16
2023-05-09T14:07:09.888Z,101221.28
2023-05-09T14:09:40.210Z,101236.13
2023-05-09T14:12:07.213Z,101222.31
2023-05-09T14:14:34.220Z,101233.41
2023-05-09T14:17:04.072Z,101191.66
2023-05-09T14:19:30.809Z,101213.91
2023-05-09T14:21:57.735Z,101206.44
2023-05-09T14:24:26.166Z,101184.91
2023-05-09T14:26:53.286Z,101216.31
2023-05-09T14:29:20.163Z,101229.63
2023-05-09T14:31:46.982Z,101227.94
2023-05-09T14:34:14.001Z,101223.91
2023-05-09T14:36:40.935Z,101175.09
2023-05-09T14:39:07.709Z,101225.78
2023-05-09T14:41:34.666Z,101218.56
2023-05-09T14:44:02.175Z,101226.63
2023-05-09T14:46:29.077Z,101228.53
2023-05-09T14:48:57.630Z,101209.69
2023-05-09T14:51:24.545Z,101222.16
2023-05-09T14:53:53.446Z,101219.75
2023-05-09T14:56:22.234Z,101208.44
2023-05-09T14:58:49.128Z,101218.25
2023-05-09T15:01:16.463Z,101130.63
2023-05-09T15:03:43.294Z,101202.16
2023-05-09T15:06:10.157Z,101202.72
2023-05-09T15:08:37.069Z,101201.31
2023-05-09T15:11:03.911Z,101186.72
2023-05-09T15:13:30.900Z,101159.56
2023-05-09T15:15:57.679Z,101184.03
2023-05-09T15:18:28.632Z,101185.09
2023-05-09T15:20:56.028Z,101168.72
2023-05-09T15:23:23.168Z,101181.34
2023-05-09T15:25:50.037Z,101187.94
2023-05-09T15:28:16.935Z,101176.75
2023-05-09T15:30:45.469Z,101172.94
2023-05-09T15:33:13.474Z,101185.00
2023-05-09T15:35:40.549Z,101191.88
2023-05-09T15:38:08.092Z,101193.53
2023-05-09T15:40:34.987Z,101175.34
2023-05-09T15:43:07.361Z,101182.31
2023-05-09T15:45:37.058Z,101192.72
2023-05-09T15:48:04.278Z,101186.72
2023-05-09T15:50:31.302Z,101171.41
2023-05-09T15:52:58.064Z,101192.28
2023-05-09T15:55:25.782Z,101172.75
2023-05-09T15:57:54.097Z,101183.25
2023-05-09T16:00:21.298Z,101155.41
2023-05-09T16:02:48.168Z,101201.72
2023-05-09T16:05:15.084Z,101202.19
2023-05-09T16:07:45.989Z,101163.41
2023-05-09T16:10:13.628Z,101163.56
2023-05-09T16:12:40.760Z,101196.78
2023-05-09T16:15:08.484Z,101197.00
2023-05-09T16:17:35.337Z,101196.03
2023-05-09T16:20:03.363Z,101209.72
2023-05-09T16:22:30.111Z,101219.97
2023-05-09T16:24:56.858Z,101205.94
2023-05-09T16:27:23.706Z,101100.19
2023-05-09T16:29:50.533Z,101218.31
2023-05-09T16:32:17.291Z,101197.75
2023-05-09T16:34:44.163Z,101216.63
2023-05-09T16:37:10.900Z,101216.19
2023-05-09T16:39:37.722Z,101213.03
2023-05-09T16:42:05.643Z,101209.22
2023-05-09T16:44:32.719Z,101212.72
2023-05-09T16:46:59.447Z,101215.41
2023-05-09T16:49:26.334Z,101212.91
2023-05-09T16:51:53.163Z,101224.97
2023-05-09T16:54:19.924Z,101204.28
2023-05-09T16:56:47.016Z,101217.44
2023-05-09T17:01:40.462Z,101220.19
2023-05-09T17:04:07.398Z,101218.50
2023-05-09T17:06:34.416Z,101225.19
2023-05-09T17:09:01.410Z,101213.53
2023-05-09T17:11:28.690Z,101210.50
2023-05-09T17:13:55.532Z,101216.06
2023-05-09T17:16:22.324Z,101209.69
2023-05-09T17:18:49.439Z,101195.97
2023-05-09T17:21:16.466Z,101207.69
2023-05-09T17:23:43.597Z,101206.50
2023-05-09T17:26:10.673Z,101201.34
2023-05-09T17:28:37.463Z,101201.34
2023-05-09T17:31:04.466Z,101187.44
2023-05-09T17:33:31.637Z,101193.97
2023-05-09T17:36:00.196Z,101189.31
2023-05-09T17:38:26.939Z,101191.28
2023-05-09T17:40:53.987Z,101201.81
2023-05-09T17:43:21.827Z,101206.16
2023-05-09T17:45:48.636Z,101192.66
2023-05-09T17:48:16.122Z,101190.28
2023-05-09T17:50:43.910Z,101189.97
2023-05-09T17:53:10.768Z,101200.66
2023-05-09T17:55:37.639Z,101199.00
2023-05-09T17:58:04.385Z,101185.63
2023-05-09T18:00:31.296Z,101129.91
2023-05-09T18:02:58.591Z,101189.00
2023-05-09T18:05:26.822Z,101188.31
2023-05-09T18:07:53.737Z,101159.13
2023-05-09T18:10:20.799Z,101187.84
2023-05-09T18:12:47.657Z,101190.19
2023-05-09T18:15:14.501Z,101163.63
2023-05-09T18:17:41.417Z,101199.69
2023-05-09T18:20:09.021Z,101197.53
2023-05-09T18:22:37.413Z,101214.56
2023-05-09T18:25:04.584Z,101225.41
2023-05-09T18:27:31.343Z,101230.59
2023-05-09T18:29:58.096Z,101230.09
2023-05-09T18:32:25.085Z,101225.75
2023-05-09T18:34:51.810Z,101231.91
2023-05-09T18:37:18.788Z,101228.44
2023-05-09T18:39:45.749Z,101114.47
2023-05-09T18:42:15.909Z,101228.09
2023-05-09T18:44:43.218Z,101233.25
2023-05-09T18:47:10.037Z,101236.09
2023-05-09T18:49:37.089Z,101232.06
2023-05-09T18:52:04.081Z,101198.16
2023-05-09T18:54:30.822Z,101225.75
2023-05-09T18:56:58.565Z,101222.91
2023-05-09T18:59:25.292Z,101230.84
2023-05-09T19:01:52.130Z,101229.56
2023-05-09T19:04:19.859Z,101244.88
2023-05-09T19:06:46.855Z,101254.56
2023-05-09T19:09:13.662Z,101213.47
2023-05-09T19:11:40.588Z,101251.56
2023-05-09T19:14:07.509Z,101244.53
2023-05-09T19:16:34.289Z,101246.38
2023-05-09T19:19:01.294Z,101249.66
2023-05-09T19:21:28.501Z,101252.13
2023-05-09T19:23:55.510Z,101252.13
2023-05-09T19:26:22.482Z,101210.09
2023-05-09T19:28:49.278Z,101247.88
2023-05-09T19:31:16.254Z,101223.94
2023-05-09T19:33:45.759Z,101242.44
2023-05-09T19:36:12.948Z,101270.31
2023-05-09T19:38:39.935Z,101266.44
2023-05-09T19:41:06.859Z,101276.09
2023-05-09T19:43:35.551Z,101270.97
2023-05-09T19:46:02.363Z,101267.78
2023-05-09T19:48:29.466Z,101258.28
2023-05-09T19:50:58.193Z,101267.09
2023-05-09T19:53:25.387Z,101231.97
2023-05-09T19:55:52.760Z,101241.84
2023-05-09T19:58:21.033Z,101263.59
2023-05-09T20:00:48.591Z,101265.94
2023-05-09T20:03:15.747Z,101271.91
2023-05-09T20:05:42.665Z,101272.25
2023-05-09T20:08:09.660Z,101266.03
2023-05-09T20:10:36.844Z,101278.94
2023-05-09T20:13:04.606Z,101257.56
2023-05-09T20:15:31.596Z,101279.56
2023-05-09T20:17:58.752Z,101282.53
2023-05-09T20:20:25.607Z,101286.31
2023-05-09T20:22:52.429Z,101294.09
2023-05-09T20:25:19.574Z,101230.66
2023-05-09T20:27:46.414Z,101304.78
2023-05-09T20:30:13.556Z,101300.59
2023-05-09T20:32:40.716Z,101298.41
2023-05-09T20:35:07.807Z,101290.53
2023-05-09T20:37:34.661Z,101286.28
2023-05-09T20:40:02.185Z,101293.91
2023-05-09T20:42:29.981Z,101307.22
2023-05-09T20:44:57.249Z,101303.34
2023-05-09T20:47:24.713Z,101303.47
2023-05-09T20:49:51.617Z,101263.44
2023-05-09T20:52:19.039Z,101321.78
2023-05-09T20:54:47.265Z,101316.75
2023-05-09T20:57:14.222Z,101323.34
2023-05-09T20:59:41.211Z,101323.97
2023-05-09T21:02:08.588Z,101330.78
2023-05-09T21:04:35.472Z,101304.09
2023-05-09T21:07:03.007Z,101334.25
2023-05-09T21:09:29.856Z,101323.25
2023-05-09T21:11:57.320Z,101319.28
2023-05-09T21:14:24.206Z,101284.19
2023-05-09T21:16:51.882Z,101314.88
2023-05-09T21:19:18.749Z,101307.00
2023-05-09T21:21:45.748Z,101318.63
2023-05-09T21:24:12.675Z,101326.38
2023-05-09T21:26:39.556Z,101316.31
2023-05-09T21:29:06.733Z,101252.38
2023-05-09T21:31:35.817Z,101298.50
2023-05-09T21:34:02.726Z,101314.63
2023-05-09T21:36:29.635Z,101310.66
2023-05-09T21:38:56.443Z,101308.44
2023-05-09T21:41:23.369Z,101286.13
2023-05-09T21:43:50.195Z,101221.38
2023-05-09T21:46:17.029Z,101305.81
2023-05-09T21:48:43.970Z,101304.78
2023-05-09T21:51:12.510Z,101307.31
2023-05-09T21:53:39.377Z,101306.75
2023-05-09T21:56:06.825Z,101315.00
2023-05-09T21:58:33.694Z,101296.00
2023-05-09T22:01:00.767Z,101300.88
2023-05-09T22:03:27.632Z,101300.31
2023-05-09T22:05:54.449Z,101298.38
2023-05-09T22:08:21.176Z,101289.63
2023-05-09T22:10:48.165Z,101290.28
2023-05-09T22:13:15.013Z,101293.13
2023-05-09T22:15:42.819Z,101284.63
2023-05-09T22:18:09.797Z,101275.72
2023-05-09T22:20:36.734Z,101273.06
2023-05-09T22:23:03.627Z,101284.19
2023-05-09T22:25:31.474Z,101283.34
2023-05-09T22:27:58.239Z,101248.47
2023-05-09T22:30:25.238Z,101270.78
2023-05-09T22:32:52.722Z,101281.47
2023-05-09T22:35:19.918Z,101281.13
2023-05-09T22:37:46.900Z,101281.69
2023-05-09T22:40:14.105Z,101276.56
2023-05-09T22:42:41.328Z,101296.00
2023-05-09T22:45:08.907Z,101207.63
2023-05-09T22:47:35.804Z,101277.91
2023-05-09T22:50:02.740Z,101265.78
2023-05-09T22:52:29.584Z,101279.63
2023-05-09T22:54:56.538Z,101271.97
2023-05-09T22:57:24.494Z,101268.38
2023-05-09T22:59:51.485Z,101275.09
2023-05-09T23:02:18.325Z,101282.94
2023-05-09T23:04:45.118Z,101284.63
2023-05-09T23:07:12.054Z,101253.84
2023-05-09T23:09:38.993Z,101262.75
2023-05-09T23:12:06.152Z,101251.34
2023-05-09T23:14:33.127Z,101283.06
2023-05-09T23:16:59.893Z,101270.50
2023-05-09T23:19:26.670Z,101280.22
2023-05-09T23:21:53.665Z,101177.38
2023-05-09T23:24:20.457Z,101272.88
2023-05-09T23:26:47.325Z,101277.69
2023-05-09T23:29:15.238Z,101281.47
2023-05-09T23:31:42.323Z,101278.31
2023-05-09T23:34:09.099Z,101262.84
2023-05-09T23:36:36.041Z,101275.72
2023-05-09T23:39:02.844Z,101278.84
2023-05-09T23:41:29.719Z,101278.63
2023-05-09T23:43:58.330Z,101250.16
2023-05-09T23:46:25.227Z,101266.38
2023-05-09T23:48:52.172Z,101277.16
2023-05-09T23:51:20.656Z,101176.50
2023-05-09T23:53:47.483Z,101204.59
2023-05-09T23:56:14.423Z,101185.72
2023-05-09T23:58:41.541Z,101256.94
